createdAt,value
2023-01-28T00:01:26.530Z,4.93
2023-01-28T00:03:53.673Z,4.18
2023-01-28T00:06:20.813Z,4.32
2023-01-28T00:08:47.895Z,4.15
2023-01-28T00:11:15.031Z,4.95
2023-01-28T00:13:42.372Z,4.40
2023-01-28T00:16:10.043Z,4.75
2023-01-28T00:18:37.575Z,4.82
2023-01-28T00:21:09.121Z,4.88
2023-01-28T00:23:37.277Z,4.75
2023-01-28T00:26:05.874Z,4.78
2023-01-28T00:28:32.959Z,4.97
2023-01-28T00:31:00.267Z,4.53
2023-01-28T00:33:29.406Z,5.28
2023-01-28T00:36:01.007Z,4.70
2023-01-28T00:38:28.566Z,4.60
2023-01-28T00:40:56.332Z,4.57
2023-01-28T00:43:23.440Z,4.43
2023-01-28T00:45:50.676Z,4.78
2023-01-28T00:48:17.943Z,5.10
2023-01-28T00:50:45.594Z,5.47
2023-01-28T00:53:12.830Z,5.25
2023-01-28T00:55:39.961Z,5.40
2023-01-28T00:58:07.054Z,4.45
2023-01-28T01:00:34.246Z,5.47
2023-01-28T01:03:01.381Z,5.10
2023-01-28T01:05:29.677Z,4.85
2023-01-28T01:07:56.813Z,5.72
2023-01-28T01:10:23.916Z,5.47
2023-01-28T01:12:51.015Z,5.03
2023-01-28T01:15:18.903Z,5.72
2023-01-28T01:17:47.572Z,5.60
2023-01-28T01:20:19.429Z,5.60
2023-01-28T01:22:46.610Z,5.43
2023-01-28T01:25:15.183Z,5.68
2023-01-28T01:27:43.117Z,5.40
2023-01-28T01:30:10.818Z,5.05
2023-01-28T01:32:37.868Z,4.95
2023-01-28T01:35:09.322Z,5.63
2023-01-28T01:37:36.695Z,4.75
2023-01-28T01:40:05.042Z,5.97
2023-01-28T01:42:33.121Z,4.90
2023-01-28T01:45:00.240Z,4.93
2023-01-28T01:47:30.504Z,4.63
2023-01-28T01:49:57.730Z,5.18
2023-01-28T01:52:27.112Z,4.75
2023-01-28T01:54:56.956Z,5.30
2023-01-28T01:57:26.624Z,5.10
2023-01-28T01:59:54.731Z,5.25
2023-01-28T02:02:22.492Z,4.93
2023-01-28T02:04:50.145Z,4.85
2023-01-28T02:07:19.328Z,4.75
2023-01-28T02:09:46.534Z,4.57
2023-01-28T02:12:22.145Z,4.88
2023-01-28T02:14:52.775Z,4.35
2023-01-28T02:17:20.293Z,4.63
2023-01-28T02:19:52.105Z,4.80
2023-01-28T02:22:19.338Z,5.03
2023-01-28T02:24:55.374Z,4.50
2023-01-28T02:27:30.131Z,4.90
2023-01-28T02:30:00.966Z,5.32
2023-01-28T02:32:40.214Z,5.15
2023-01-28T02:35:10.506Z,4.93
2023-01-28T02:37:39.718Z,4.90
2023-01-28T02:40:10.837Z,5.15
2023-01-28T02:42:40.325Z,5.53
2023-01-28T02:45:17.255Z,5.43
2023-01-28T02:47:59.870Z,5.30
2023-01-28T02:50:40.279Z,5.00
2023-01-28T02:53:26.019Z,5.72
2023-01-28T02:55:58.288Z,5.05
2023-01-28T02:58:31.517Z,4.40
2023-01-28T03:01:01.857Z,5.13
2023-01-28T03:03:47.679Z,5.50
2023-01-28T03:06:16.661Z,5.13
2023-01-28T03:09:04.917Z,4.70
2023-01-28T03:11:52.847Z,4.57
2023-01-28T03:14:39.450Z,4.47
2023-01-28T03:17:27.569Z,5.22
2023-01-28T03:20:13.801Z,4.45
2023-01-28T03:23:01.149Z,4.85
2023-01-28T03:25:46.907Z,5.25
2023-01-28T03:28:34.914Z,5.15
2023-01-28T03:31:32.335Z,5.10
2023-01-28T03:34:18.743Z,5.22
2023-01-28T03:36:50.383Z,4.95
2023-01-28T03:39:23.288Z,5.50
2023-01-28T03:41:59.359Z,5.28
2023-01-28T03:44:46.457Z,5.07
2023-01-28T03:47:14.058Z,5.15
2023-01-28T03:49:49.395Z,4.60
2023-01-28T03:52:20.771Z,5.15
2023-01-28T03:54:48.620Z,5.15
2023-01-28T03:57:20.019Z,5.40
2023-01-28T03:59:49.756Z,5.35
2023-01-28T04:02:17.410Z,5.30
2023-01-28T04:04:44.546Z,4.90
2023-01-28T04:07:14.104Z,4.55
2023-01-28T04:09:41.404Z,5.25
2023-01-28T04:12:08.484Z,4.72
2023-01-28T04:14:36.247Z,4.93
2023-01-28T04:17:03.395Z,4.80
2023-01-28T04:19:31.690Z,4.80
2023-01-28T04:21:58.848Z,4.80
2023-01-28T04:24:26.014Z,4.57
2023-01-28T04:26:55.504Z,5.80
2023-01-28T04:29:23.473Z,5.55
2023-01-28T04:31:50.714Z,5.07
2023-01-28T04:34:17.892Z,5.90
2023-01-28T04:36:45.054Z,5.20
2023-01-28T04:39:12.179Z,5.45
2023-01-28T04:41:39.319Z,5.60
2023-01-28T04:44:06.444Z,5.68
2023-01-28T04:46:33.730Z,5.55
2023-01-28T04:49:01.993Z,5.45
2023-01-28T04:51:29.111Z,5.35
2023-01-28T04:53:56.291Z,4.80
2023-01-28T04:56:23.509Z,5.03
2023-01-28T04:58:50.599Z,5.40
2023-01-28T05:01:17.743Z,5.00
2023-01-28T05:03:44.940Z,4.70
2023-01-28T05:06:12.032Z,4.95
2023-01-28T05:08:39.200Z,4.88
2023-01-28T05:11:06.334Z,5.28
2023-01-28T05:13:36.495Z,5.45
2023-01-28T05:16:03.708Z,4.88
2023-01-28T05:18:30.834Z,4.90
2023-01-28T05:20:58.239Z,4.97
2023-01-28T05:23:25.375Z,4.38
2023-01-28T05:25:52.446Z,5.32
2023-01-28T05:28:19.525Z,4.88
2023-01-28T05:30:46.731Z,5.18
2023-01-28T05:33:13.895Z,5.68
2023-01-28T05:35:41.002Z,4.47
2023-01-28T05:38:08.150Z,5.57
2023-01-28T05:40:35.357Z,5.18
2023-01-28T05:43:02.543Z,4.50
2023-01-28T05:45:29.684Z,4.57
2023-01-28T05:47:56.904Z,4.30
2023-01-28T05:50:24.123Z,4.30
2023-01-28T05:52:51.173Z,4.85
2023-01-28T05:55:20.713Z,4.13
2023-01-28T05:57:48.754Z,4.38
2023-01-28T06:00:16.748Z,4.55
2023-01-28T06:02:44.217Z,4.80
2023-01-28T06:05:11.497Z,4.18
2023-01-28T06:07:38.603Z,4.90
2023-01-28T06:10:05.961Z,4.00
2023-01-28T06:12:33.036Z,4.75
2023-01-28T06:15:00.131Z,4.68
2023-01-28T06:17:27.279Z,4.55
2023-01-28T06:19:54.365Z,4.93
2023-01-28T06:22:21.803Z,4.18
2023-01-28T06:24:49.044Z,4.65
2023-01-28T06:27:16.224Z,4.57
2023-01-28T06:29:43.375Z,4.45
2023-01-28T06:32:10.595Z,4.78
2023-01-28T06:34:37.742Z,4.50
2023-01-28T06:37:04.980Z,4.70
2023-01-28T06:39:32.819Z,4.72
2023-01-28T06:42:00.281Z,4.63
2023-01-28T06:44:27.447Z,5.30
2023-01-28T06:46:54.567Z,4.35
2023-01-28T06:49:22.024Z,4.28
2023-01-28T06:51:49.440Z,5.30
2023-01-28T06:54:16.598Z,4.93
2023-01-28T06:56:44.234Z,5.07
2023-01-28T06:59:11.379Z,5.50
2023-01-28T07:01:38.524Z,5.15
2023-01-28T07:04:05.772Z,4.53
2023-01-28T07:06:32.884Z,4.60
2023-01-28T07:09:00.038Z,4.47
2023-01-28T07:11:27.285Z,4.95
2023-01-28T07:13:54.526Z,4.63
2023-01-28T07:16:22.091Z,5.07
2023-01-28T07:18:49.263Z,4.68
2023-01-28T07:21:16.342Z,4.72
2023-01-28T07:23:43.539Z,4.80
2023-01-28T07:26:10.651Z,5.05
2023-01-28T07:28:37.877Z,4.70
2023-01-28T07:31:05.189Z,6.72
2023-01-28T07:33:32.466Z,6.68
2023-01-28T07:35:59.530Z,6.50
2023-01-28T07:38:26.655Z,6.35
2023-01-28T07:40:54.334Z,6.53
2023-01-28T07:43:21.645Z,6.05
2023-01-28T07:45:48.764Z,5.43
2023-01-28T07:48:16.324Z,4.47
2023-01-28T07:50:43.579Z,5.50
2023-01-28T07:53:11.425Z,5.63
2023-01-28T07:55:38.790Z,5.60
2023-01-28T07:58:07.035Z,5.90
2023-01-28T08:00:35.168Z,5.80
2023-01-28T08:03:05.717Z,5.65
2023-01-28T08:05:43.580Z,5.22
2023-01-28T08:08:11.401Z,5.63
2023-01-28T08:10:38.979Z,5.57
2023-01-28T08:13:06.536Z,5.88
2023-01-28T08:15:35.400Z,5.47
2023-01-28T08:18:03.017Z,5.50
2023-01-28T08:20:30.619Z,5.40
2023-01-28T08:23:08.215Z,4.95
2023-01-28T08:25:35.708Z,4.95
2023-01-28T08:28:03.071Z,5.93
2023-01-28T08:30:30.303Z,6.13
2023-01-28T08:32:58.260Z,6.00
2023-01-28T08:35:26.471Z,5.70
2023-01-28T08:37:54.009Z,5.65
2023-01-28T08:40:21.725Z,5.00
2023-01-28T08:42:49.805Z,5.85
2023-01-28T08:45:17.155Z,5.38
2023-01-28T08:47:50.519Z,6.00
2023-01-28T08:50:18.336Z,6.13
2023-01-28T08:52:51.255Z,6.80
2023-01-28T08:55:19.217Z,6.32
2023-01-28T08:57:46.549Z,7.05
2023-01-28T09:00:14.271Z,5.85
2023-01-28T09:02:44.698Z,4.93
2023-01-28T09:05:11.924Z,5.45
2023-01-28T09:07:39.544Z,4.57
2023-01-28T09:10:07.227Z,4.80
2023-01-28T09:12:34.666Z,5.18
2023-01-28T09:15:01.920Z,4.93
2023-01-28T09:17:29.042Z,4.60
2023-01-28T09:19:56.172Z,4.32
2023-01-28T09:22:23.507Z,3.90
2023-01-28T09:24:50.791Z,4.65
2023-01-28T09:27:17.894Z,4.18
2023-01-28T09:29:45.069Z,4.00
2023-01-28T09:32:12.252Z,4.05
2023-01-28T09:34:39.401Z,4.10
2023-01-28T09:37:06.648Z,3.58
2023-01-28T09:39:33.873Z,3.40
2023-01-28T09:42:27.369Z,4.07
2023-01-28T09:45:00.721Z,4.68
2023-01-28T09:47:31.493Z,6.88
2023-01-28T09:50:00.736Z,3.90
2023-01-28T09:52:31.348Z,3.42
2023-01-28T09:55:17.373Z,3.30
2023-01-28T09:57:47.637Z,3.50
2023-01-28T10:00:20.122Z,3.08
2023-01-28T10:02:50.452Z,3.17
2023-01-28T10:05:29.022Z,3.40
2023-01-28T10:08:15.147Z,3.35
2023-01-28T10:10:42.517Z,3.10
2023-01-28T10:13:28.616Z,3.20
2023-01-28T10:16:05.074Z,2.95
2023-01-28T10:18:43.116Z,3.20
2023-01-28T10:21:17.790Z,4.07
2023-01-28T10:24:04.390Z,3.85
2023-01-28T10:26:39.649Z,3.38
2023-01-28T10:29:16.029Z,4.00
2023-01-28T10:32:15.482Z,3.38
2023-01-28T10:34:42.756Z,2.83
2023-01-28T10:37:13.666Z,3.70
2023-01-28T10:39:40.981Z,3.60
2023-01-28T10:42:17.525Z,3.33
2023-01-28T10:44:45.936Z,3.63
2023-01-28T10:47:17.786Z,3.35
2023-01-28T10:49:48.518Z,3.42
2023-01-28T10:52:18.547Z,3.47
2023-01-28T10:54:45.695Z,3.92
2023-01-28T10:57:17.886Z,3.03
2023-01-28T10:59:45.208Z,3.20
2023-01-28T11:02:27.740Z,3.60
2023-01-28T11:05:18.237Z,3.22
2023-01-28T11:07:45.470Z,3.40
2023-01-28T11:10:32.224Z,3.35
2023-01-28T11:13:00.682Z,3.10
2023-01-28T11:15:27.772Z,3.67
2023-01-28T11:17:57.304Z,3.22
2023-01-28T11:20:25.694Z,3.67
2023-01-28T11:22:53.460Z,3.88
2023-01-28T11:25:26.577Z,2.90
2023-01-28T11:39:32.964Z,3.00
2023-01-28T12:10:29.917Z,3.45
2023-01-28T12:12:57.040Z,3.50
2023-01-28T12:15:43.106Z,4.00
2023-01-28T12:18:29.079Z,4.15
2023-01-28T12:20:56.374Z,4.30
2023-01-28T12:23:38.595Z,3.80
2023-01-28T12:28:44.978Z,3.75
2023-01-28T12:31:15.280Z,3.47
2023-01-28T12:34:05.370Z,3.55
2023-01-28T12:36:57.357Z,3.47
2023-01-28T12:39:52.700Z,3.35
2023-01-28T12:42:24.170Z,3.00
2023-01-28T12:44:55.118Z,2.90
2023-01-28T12:47:25.031Z,3.25
2023-01-28T12:49:56.108Z,3.40
2023-01-28T12:52:24.369Z,3.10
2023-01-28T12:55:05.204Z,3.30
2023-01-28T12:57:34.284Z,3.28
2023-01-28T13:00:07.095Z,3.42
2023-01-28T13:02:36.884Z,3.10
2023-01-28T13:05:14.609Z,3.25
2023-01-28T13:08:01.985Z,3.28
2023-01-28T13:10:36.374Z,2.92
2023-01-28T13:13:04.227Z,3.30
2023-01-28T13:15:31.896Z,3.38
2023-01-28T13:18:00.832Z,3.33
2023-01-28T13:20:51.023Z,3.40
2023-01-28T13:23:44.949Z,3.58
2023-01-28T13:26:24.605Z,3.55
2023-01-28T13:28:52.611Z,3.53
2023-01-28T13:31:20.894Z,3.55
2023-01-28T13:33:49.385Z,3.63
2023-01-28T13:36:33.874Z,4.15
2023-01-28T13:39:02.676Z,3.75
2023-01-28T13:41:43.363Z,4.13
2023-01-28T13:44:21.007Z,4.18
2023-01-28T13:46:48.140Z,4.43
2023-01-28T13:49:20.714Z,3.85
2023-01-28T13:52:02.674Z,4.72
2023-01-28T13:54:30.083Z,3.95
2023-01-28T13:57:00.402Z,3.58
2023-01-28T13:59:39.457Z,4.07
2023-01-28T14:02:06.605Z,4.18
2023-01-28T14:04:52.531Z,4.13
2023-01-28T14:07:19.599Z,3.83
2023-01-28T14:09:46.894Z,3.58
2023-01-28T14:12:16.927Z,3.03
2023-01-28T14:15:04.788Z,3.45
2023-01-28T14:17:43.032Z,3.53
2023-01-28T14:20:21.879Z,3.30
2023-01-28T14:22:49.398Z,3.47
2023-01-28T14:25:22.602Z,3.30
2023-01-28T14:27:53.763Z,3.55
2023-01-28T14:30:25.067Z,3.60
2023-01-28T14:32:53.839Z,3.72
2023-01-28T14:35:28.385Z,3.70
2023-01-28T14:37:55.759Z,4.07
2023-01-28T14:40:23.495Z,4.05
2023-01-28T14:42:52.848Z,3.67
2023-01-28T14:45:58.595Z,3.17
2023-01-28T14:48:31.955Z,3.03
2023-01-28T14:51:17.229Z,3.35
2023-01-28T14:53:47.144Z,3.00
2023-01-28T14:56:20.981Z,3.60
2023-01-28T14:58:56.986Z,2.67
2023-01-28T15:01:28.572Z,3.47
2023-01-28T15:03:55.792Z,3.75
2023-01-28T15:06:24.647Z,3.88
2023-01-28T15:08:52.556Z,4.18
2023-01-28T15:11:24.561Z,3.53
2023-01-28T15:13:59.289Z,3.20
2023-01-28T15:16:31.520Z,3.85
2023-01-28T15:19:01.037Z,3.72
2023-01-28T15:21:29.393Z,3.60
2023-01-28T15:23:58.264Z,3.30
2023-01-28T15:26:26.884Z,3.67
2023-01-28T15:28:54.548Z,3.92
2023-01-28T15:31:26.179Z,4.20
2023-01-28T15:34:00.371Z,5.07
2023-01-28T15:36:28.009Z,4.05
2023-01-28T15:38:55.850Z,3.38
2023-01-28T15:41:25.287Z,4.18
2023-01-28T15:43:53.248Z,4.40
2023-01-28T15:46:20.583Z,3.70
2023-01-28T15:48:52.019Z,4.97
2023-01-28T15:51:20.789Z,5.65
2023-01-28T15:53:50.544Z,5.50
2023-01-28T15:56:24.564Z,5.15
2023-01-28T15:58:51.665Z,4.75
2023-01-28T16:01:20.019Z,4.07
2023-01-28T16:03:48.554Z,5.35
2023-01-28T16:06:16.765Z,5.25
2023-01-28T16:08:55.419Z,7.78
2023-01-28T16:11:34.263Z,6.88
2023-01-28T16:14:01.573Z,5.00
2023-01-28T16:16:35.779Z,4.97
2023-01-28T16:19:07.203Z,6.07
2023-01-28T16:21:38.821Z,5.35
2023-01-28T16:24:23.068Z,4.93
2023-01-28T16:27:16.332Z,4.97
2023-01-28T16:29:43.471Z,5.53
2023-01-28T16:32:30.518Z,6.07
2023-01-28T16:34:57.747Z,4.32
2023-01-28T16:39:58.163Z,4.53
2023-01-28T16:42:27.445Z,4.70
2023-01-28T16:44:54.540Z,3.60
2023-01-28T16:47:21.697Z,3.75
2023-01-28T16:49:48.926Z,4.60
2023-01-28T16:52:17.180Z,4.53
2023-01-28T16:54:47.322Z,4.35
2023-01-28T16:57:19.477Z,4.82
2023-01-28T16:59:46.606Z,4.80
2023-01-28T17:02:14.681Z,4.65
2023-01-28T17:04:41.798Z,4.38
2023-01-28T17:07:09.775Z,4.85
2023-01-28T17:09:36.923Z,4.03
2023-01-28T17:12:04.353Z,4.20
2023-01-28T17:14:31.578Z,3.65
2023-01-28T17:16:58.701Z,4.32
2023-01-28T17:19:25.843Z,4.40
2023-01-28T17:21:52.936Z,4.32
2023-01-28T17:24:20.101Z,3.58
2023-01-28T17:26:47.410Z,3.65
2023-01-28T17:29:14.465Z,4.75
2023-01-28T17:31:41.658Z,5.00
2023-01-28T17:34:11.642Z,3.90
2023-01-28T17:36:38.883Z,4.47
2023-01-28T17:39:08.980Z,3.78
2023-01-28T17:41:36.102Z,3.70
2023-01-28T17:44:04.560Z,3.70
2023-01-28T17:46:31.717Z,3.97
2023-01-28T17:48:58.773Z,3.03
2023-01-28T17:51:25.898Z,3.05
2023-01-28T17:53:53.948Z,3.70
2023-01-28T17:56:25.862Z,5.22
2023-01-28T17:58:53.937Z,4.03
2023-01-28T18:01:21.424Z,4.57
2023-01-28T18:03:48.864Z,4.03
2023-01-28T18:06:16.130Z,4.40
2023-01-28T18:08:43.304Z,5.47
2023-01-28T18:11:11.470Z,3.80
2023-01-28T18:13:39.117Z,3.70
2023-01-28T18:16:06.965Z,3.45
2023-01-28T18:18:34.669Z,2.95
2023-01-28T18:21:02.731Z,3.72
2023-01-28T18:23:30.112Z,3.50
2023-01-28T18:25:57.987Z,3.30
2023-01-28T18:28:25.553Z,3.80
2023-01-28T18:30:52.986Z,3.65
2023-01-28T18:33:20.851Z,3.15
2023-01-28T18:35:48.495Z,4.47
2023-01-28T18:38:18.162Z,4.75
2023-01-28T18:40:45.850Z,4.38
2023-01-28T18:43:13.519Z,3.33
2023-01-28T18:45:41.393Z,4.07
2023-01-28T18:48:08.550Z,4.00
2023-01-28T18:50:35.661Z,4.00
2023-01-28T18:53:02.840Z,4.85
2023-01-28T18:55:29.907Z,4.32
2023-01-28T18:57:57.475Z,5.50
2023-01-28T19:00:24.517Z,4.65
2023-01-28T19:02:51.637Z,4.05
2023-01-28T19:05:19.031Z,4.30
2023-01-28T19:07:46.151Z,4.53
2023-01-28T19:10:13.404Z,5.50
2023-01-28T19:12:40.564Z,4.88
2023-01-28T19:15:08.123Z,4.93
2023-01-28T19:17:35.664Z,4.80
2023-01-28T19:20:02.822Z,5.20
2023-01-28T19:22:30.068Z,5.82
2023-01-28T19:24:57.113Z,5.43
2023-01-28T19:27:24.274Z,5.45
2023-01-28T19:29:51.468Z,5.18
2023-01-28T19:32:18.548Z,4.97
2023-01-28T19:34:45.642Z,5.68
2023-01-28T19:37:13.372Z,4.57
2023-01-28T19:39:40.441Z,5.55
2023-01-28T19:42:07.606Z,6.18
2023-01-28T19:44:35.601Z,5.53
2023-01-28T19:47:02.857Z,5.68
2023-01-28T19:49:30.814Z,5.00
2023-01-28T19:51:57.965Z,5.18
2023-01-28T19:54:25.139Z,5.55
2023-01-28T19:56:52.428Z,5.57
2023-01-28T19:59:22.703Z,5.45
2023-01-28T20:01:49.838Z,6.25
2023-01-28T20:04:16.965Z,5.60
2023-01-28T20:06:44.092Z,5.88
2023-01-28T20:09:19.592Z,5.15
2023-01-28T20:11:46.671Z,6.28
2023-01-28T20:14:15.004Z,6.50
2023-01-28T20:16:42.664Z,6.18
2023-01-28T20:19:13.987Z,6.25
2023-01-28T20:21:41.195Z,5.97
2023-01-28T20:24:08.723Z,5.68
2023-01-28T20:26:37.678Z,5.82
2023-01-28T20:29:06.055Z,5.68
2023-01-28T20:31:33.557Z,5.70
2023-01-28T20:34:01.219Z,6.05
2023-01-28T20:36:28.387Z,6.63
2023-01-28T20:38:55.573Z,6.38
2023-01-28T20:41:23.642Z,5.55
2023-01-28T20:43:51.584Z,7.70
2023-01-28T20:46:19.328Z,6.10
2023-01-28T20:48:46.779Z,5.53
2023-01-28T20:51:18.139Z,5.63
2023-01-28T20:53:45.295Z,6.60
2023-01-28T20:56:14.368Z,6.70
2023-01-28T20:58:41.776Z,6.88
2023-01-28T21:01:08.997Z,6.75
2023-01-28T21:03:36.189Z,6.75
2023-01-28T21:06:03.241Z,6.47
2023-01-28T21:08:30.328Z,7.00
2023-01-28T21:10:57.437Z,6.15
2023-01-28T21:13:24.605Z,6.60
2023-01-28T21:15:52.935Z,6.07
2023-01-28T21:18:20.104Z,6.85
2023-01-28T21:20:47.482Z,7.13
2023-01-28T21:23:15.661Z,6.90
2023-01-28T21:25:43.200Z,5.35
2023-01-28T21:28:13.634Z,6.68
2023-01-28T21:30:40.840Z,6.85
2023-01-28T21:33:08.230Z,5.90
2023-01-28T21:35:42.204Z,6.07
2023-01-28T21:38:09.878Z,6.38
2023-01-28T21:40:37.375Z,6.63
2023-01-28T21:43:05.064Z,6.88
2023-01-28T21:45:32.131Z,7.15
2023-01-28T21:47:59.242Z,6.70
2023-01-28T21:50:26.419Z,6.50
2023-01-28T21:52:53.550Z,7.10
2023-01-28T21:55:20.795Z,6.82
2023-01-28T21:57:47.971Z,6.55
2023-01-28T22:00:15.645Z,7.25
2023-01-28T22:02:42.919Z,7.32
2023-01-28T22:05:10.091Z,6.95
2023-01-28T22:07:37.269Z,6.40
2023-01-28T22:10:04.551Z,6.47
2023-01-28T22:12:31.622Z,5.75
2023-01-28T22:14:58.779Z,6.45
2023-01-28T22:17:26.244Z,6.75
2023-01-28T22:19:53.380Z,7.05
2023-01-28T22:22:20.437Z,7.05
2023-01-28T22:24:47.618Z,7.07
2023-01-28T22:27:15.076Z,6.95
2023-01-28T22:29:42.183Z,6.70
2023-01-28T22:32:09.260Z,7.15
2023-01-28T22:34:36.401Z,6.00
2023-01-28T22:37:03.591Z,7.45
2023-01-28T22:39:30.767Z,6.68
2023-01-28T22:41:57.939Z,6.85
2023-01-28T22:44:26.371Z,7.57
2023-01-28T22:46:53.506Z,6.97
2023-01-28T22:49:22.145Z,6.28
2023-01-28T22:51:49.282Z,6.55
2023-01-28T22:54:16.414Z,7.78
2023-01-28T22:56:43.788Z,6.90
2023-01-28T22:59:12.121Z,7.10
2023-01-28T23:01:39.973Z,6.50
2023-01-28T23:04:07.116Z,6.80
2023-01-28T23:06:34.384Z,7.70
2023-01-28T23:09:01.488Z,7.57
2023-01-28T23:11:29.009Z,6.75
2023-01-28T23:14:16.308Z,7.32
2023-01-28T23:17:02.508Z,6.30
2023-01-28T23:19:48.725Z,6.85
2023-01-28T23:22:36.681Z,6.25
2023-01-28T23:25:03.994Z,6.55
2023-01-28T23:27:31.030Z,6.90
2023-01-28T23:29:58.169Z,7.40
2023-01-28T23:32:25.320Z,7.60
2023-01-28T23:34:52.485Z,7.78
2023-01-28T23:37:19.664Z,7.22
2023-01-28T23:39:46.791Z,6.63
2023-01-28T23:42:18.492Z,6.60
2023-01-28T23:44:45.818Z,7.30
2023-01-28T23:47:13.365Z,6.90
2023-01-28T23:49:40.620Z,6.78
2023-01-28T23:52:08.129Z,7.35
2023-01-28T23:54:35.440Z,7.07
2023-01-28T23:57:04.339Z,6.80
2023-01-28T23:59:31.415Z,7.45
